Time;durP1;ratioP1;P1;durP2;ratioP2;P2;SDS_P1;SDS_P2;PMS_P1;PMS_P2;Temp;Humidity;BMP_temperature;BMP_pressure;BME280_temperature;BME280_humidity;BME280_pressure;Samples;Min_cycle;Max_cycle;Signal;HPM_P1;HPM_P2
2023/06/29 00:01:31;;;;;;;4.57;2.60;;;;;;;13.86;100.00;94739.59;5118753;27;20200;-74
2023/06/29 00:03:59;;;;;;;4.38;2.90;;;;;;;14.01;100.00;94740.81;5118417;27;20201;-73
2023/06/29 00:06:26;;;;;;;6.53;3.28;;;;;;;14.11;100.00;94746.56;5125437;27;20198;-73
2023/06/29 00:08:54;;;;;;;4.75;2.88;;;;;;;14.00;100.00;94733.78;5125142;27;20667;-73
2023/06/29 00:11:22;;;;;;;4.50;2.97;;;;;;;13.94;100.00;94746.84;5119869;27;20201;-73
2023/06/29 00:13:49;;;;;;;5.32;3.42;;;;;;;13.91;100.00;94747.53;5118423;27;20206;-73
2023/06/29 00:16:16;;;;;;;6.28;2.90;;;;;;;14.00;100.00;94739.22;5124250;27;20209;-73
2023/06/29 00:18:43;;;;;;;4.90;3.30;;;;;;;13.96;100.00;94733.66;5125211;27;20301;-73
2023/06/29 00:21:10;;;;;;;4.43;3.33;;;;;;;13.96;100.00;94741.84;5120399;27;20197;-73
2023/06/29 00:23:37;;;;;;;5.70;3.40;;;;;;;13.87;100.00;94731.09;5117887;27;20201;-73
2023/06/29 00:26:05;;;;;;;5.30;3.00;;;;;;;13.82;100.00;94738.69;5122038;27;20630;-73
2023/06/29 00:28:32;;;;;;;5.63;3.60;;;;;;;13.78;100.00;94727.72;5125042;27;20205;-73
2023/06/29 00:30:58;;;;;;;5.93;4.00;;;;;;;13.72;100.00;94718.22;5120395;27;20660;-74
2023/06/29 00:33:25;;;;;;;5.35;3.72;;;;;;;13.74;100.00;94715.16;5117857;27;20209;-73
2023/06/29 00:35:52;;;;;;;7.00;3.70;;;;;;;13.70;100.00;94714.25;5121808;27;20282;-74
2023/06/29 00:38:19;;;;;;;6.18;4.18;;;;;;;13.63;100.00;94719.50;5124833;27;20204;-73
2023/06/29 00:40:46;;;;;;;5.32;3.85;;;;;;;13.55;100.00;94717.69;5120709;27;20212;-73
2023/06/29 00:43:14;;;;;;;7.40;4.40;;;;;;;13.67;100.00;94712.19;5117808;27;20500;-73
2023/06/29 00:45:41;;;;;;;5.85;3.83;;;;;;;13.56;100.00;94713.81;5118404;27;20656;-73
2023/06/29 00:48:08;;;;;;;5.60;3.72;;;;;;;13.53;100.00;94721.53;5114762;27;20265;-73
2023/06/29 00:50:36;;;;;;;5.20;3.70;;;;;;;13.44;100.00;94731.75;5120505;27;20206;-73
2023/06/29 00:53:03;;;;;;;5.43;3.80;;;;;;;13.40;100.00;94727.34;5124307;27;20676;-73
2023/06/29 00:55:30;;;;;;;7.88;4.82;;;;;;;13.45;100.00;94727.91;5121972;27;20642;-73
2023/06/29 00:57:57;;;;;;;5.88;4.03;;;;;;;13.53;100.00;94726.97;5117270;27;20200;-73
2023/06/29 01:00:25;;;;;;;6.05;3.75;;;;;;;13.63;100.00;94731.16;5127146;27;20567;-73
2023/06/29 01:02:52;;;;;;;6.55;4.00;;;;;;;13.61;100.00;94724.47;5117650;27;20581;-73
2023/06/29 01:05:19;;;;;;;5.38;3.38;;;;;;;13.65;100.00;94730.84;5119466;27;20573;-73
2023/06/29 01:07:50;;;;;;;6.00;3.97;;;;;;;13.58;100.00;94719.72;5124156;27;20197;-74
2023/06/29 01:10:21;;;;;;;5.50;3.70;;;;;;;13.50;100.00;94737.78;5123859;27;20249;-73
2023/06/29 01:12:50;;;;;;;6.47;3.78;;;;;;;13.60;100.00;94741.94;5108811;28;20251;-73
2023/06/29 01:15:17;;;;;;;5.25;3.58;;;;;;;13.46;100.00;94737.66;5119556;27;20264;-73
2023/06/29 01:17:47;;;;;;;6.53;3.65;;;;;;;13.48;100.00;94738.13;5123525;27;20707;-74
2023/06/29 01:20:16;;;;;;;6.35;4.38;;;;;;;13.47;100.00;94733.81;5124232;27;20559;-74
2023/06/29 01:22:52;;;;;;;6.53;3.92;;;;;;;13.43;100.00;94726.66;5101207;28;20205;-73
2023/06/29 01:25:21;;;;;;;8.95;4.22;;;;;;;13.46;100.00;94732.22;5110486;28;20246;-73
2023/06/29 01:27:48;;;;;;;5.97;4.00;;;;;;;13.41;100.00;94729.72;5101008;28;20194;-73
2023/06/29 01:30:15;;;;;;;6.93;3.67;;;;;;;13.32;100.00;94726.34;5102517;27;20563;-74
2023/06/29 01:32:42;;;;;;;5.38;3.45;;;;;;;13.25;100.00;94730.78;5115420;27;20204;-72
2023/06/29 01:35:09;;;;;;;7.60;4.00;;;;;;;13.21;100.00;94729.88;5122348;27;20227;-74
2023/06/29 01:37:43;;;;;;;6.45;4.30;;;;;;;13.18;100.00;94731.34;5120125;27;20206;-74
2023/06/29 01:40:12;;;;;;;8.38;4.35;;;;;;;13.11;100.00;94725.66;5111942;27;20200;-74
2023/06/29 01:42:42;;;;;;;6.25;4.00;;;;;;;13.02;100.00;94724.97;5120073;27;20239;-74
2023/06/29 01:45:11;;;;;;;7.20;4.53;;;;;;;13.01;100.00;94732.34;5119419;27;20281;-73
2023/06/29 01:47:38;;;;;;;4.90;3.47;;;;;;;13.00;100.00;94716.34;5106691;28;20575;-73
2023/06/29 01:50:06;;;;;;;6.80;4.03;;;;;;;12.96;100.00;94718.19;5101857;28;20202;-73
2023/06/29 01:52:33;;;;;;;6.28;3.90;;;;;;;12.98;100.00;94726.81;5096434;28;20206;-73
2023/06/29 01:55:00;;;;;;;7.95;4.78;;;;;;;12.96;100.00;94723.63;5110080;28;20255;-73
2023/06/29 01:57:26;;;;;;;8.35;4.82;;;;;;;12.85;100.00;94722.50;5109924;28;20205;-73
2023/06/29 01:59:55;;;;;;;9.40;4.80;;;;;;;12.90;100.00;94724.97;5113914;28;20197;-74
2023/06/29 02:02:21;;;;;;;7.18;4.90;;;;;;;12.85;100.00;94736.09;5116501;28;20266;-73
2023/06/29 02:04:48;;;;;;;7.03;4.30;;;;;;;12.77;100.00;94733.13;5117254;28;20781;-73
2023/06/29 02:07:15;;;;;;;8.10;4.97;;;;;;;12.91;100.00;94737.44;5110683;28;20198;-74
2023/06/29 02:09:43;;;;;;;8.38;5.05;;;;;;;12.85;100.00;94742.28;5124143;28;20205;-74
2023/06/29 02:12:10;;;;;;;8.68;5.38;;;;;;;12.88;100.00;94743.53;5116431;28;20200;-73
2023/06/29 02:14:37;;;;;;;6.63;4.45;;;;;;;12.89;100.00;94745.13;5114529;28;20225;-73
2023/06/29 02:17:05;;;;;;;9.13;4.70;;;;;;;12.89;100.00;94740.50;5119041;28;20656;-73
2023/06/29 02:19:32;;;;;;;7.78;4.85;;;;;;;12.88;100.00;94735.38;5120994;28;20200;-74
2023/06/29 02:21:58;;;;;;;7.80;4.85;;;;;;;12.84;100.00;94726.34;5107083;28;20201;-73
2023/06/29 02:24:25;;;;;;;11.48;5.60;;;;;;;12.82;100.00;94734.84;5104429;28;20201;-73
2023/06/29 02:26:52;;;;;;;7.85;5.22;;;;;;;12.74;100.00;94731.06;5106182;28;20657;-73
2023/06/29 02:29:19;;;;;;;10.20;6.18;;;;;;;12.73;100.00;94725.97;5097308;28;20210;-73
2023/06/29 02:31:46;;;;;;;7.70;5.32;;;;;;;12.74;100.00;94731.06;5115593;28;20201;-73
2023/06/29 02:34:14;;;;;;;8.25;5.10;;;;;;;12.57;100.00;94723.16;5123509;28;20641;-73
2023/06/29 02:36:42;;;;;;;8.80;5.43;;;;;;;12.64;100.00;94728.81;5112439;28;20225;-73
2023/06/29 02:39:09;;;;;;;7.30;4.82;;;;;;;12.57;100.00;94727.78;5109834;28;20242;-74
2023/06/29 02:41:35;;;;;;;9.85;5.40;;;;;;;12.56;100.00;94727.00;5107878;28;20253;-73
2023/06/29 02:44:02;;;;;;;7.63;5.32;;;;;;;12.53;100.00;94732.31;5099096;28;20302;-73
2023/06/29 02:46:30;;;;;;;10.52;5.20;;;;;;;12.54;100.00;94728.47;5104868;28;20539;-73
2023/06/29 02:48:56;;;;;;;9.18;5.20;;;;;;;12.53;100.00;94733.09;5106695;27;20710;-73
2023/06/29 02:51:25;;;;;;;6.00;4.25;;;;;;;12.53;100.00;94733.09;5115265;27;20640;-73
2023/06/29 02:53:51;;;;;;;8.18;4.85;;;;;;;12.53;100.00;94735.81;5105763;27;20239;-73
2023/06/29 02:56:18;;;;;;;11.73;5.72;;;;;;;12.54;100.00;94729.25;5111854;27;20232;-73
2023/06/29 02:58:45;;;;;;;8.85;5.97;;;;;;;12.49;100.00;94729.47;5108040;27;20204;-73
2023/06/29 03:01:11;;;;;;;9.25;5.45;;;;;;;12.49;100.00;94734.88;5105284;27;20661;-73
2023/06/29 03:03:38;;;;;;;8.48;5.30;;;;;;;12.56;100.00;94737.88;5103110;28;20564;-73
2023/06/29 03:06:05;;;;;;;9.02;6.13;;;;;;;12.60;100.00;94743.41;5104075;27;20702;-73
2023/06/29 03:08:33;;;;;;;7.32;4.63;;;;;;;12.65;100.00;94741.25;5104933;27;20288;-73
2023/06/29 03:11:00;;;;;;;9.50;5.50;;;;;;;12.96;100.00;94739.94;5108658;27;20258;-73
2023/06/29 03:13:27;;;;;;;9.30;5.80;;;;;;;13.27;100.00;94744.81;5107829;27;20205;-74
2023/06/29 03:15:56;;;;;;;7.40;4.68;;;;;;;13.64;100.00;94740.13;5106341;27;20221;-73
2023/06/29 03:18:23;;;;;;;7.10;4.65;;;;;;;13.96;100.00;94744.56;5104568;27;20194;-73
2023/06/29 03:20:50;;;;;;;9.15;5.30;;;;;;;14.12;98.77;94753.59;5108969;27;20189;-74
2023/06/29 03:23:17;;;;;;;8.25;5.00;;;;;;;14.31;97.12;94743.97;5103844;27;20210;-73
2023/06/29 03:25:45;;;;;;;6.97;5.43;;;;;;;14.33;96.64;94749.88;5110951;27;20264;-73
2023/06/29 03:28:12;;;;;;;8.38;5.07;;;;;;;14.09;98.31;94751.53;5103893;27;20707;-73
2023/06/29 03:30:38;;;;;;;6.72;4.85;;;;;;;13.96;99.05;94752.72;5106356;27;20197;-74
2023/06/29 03:33:05;;;;;;;11.43;5.05;;;;;;;14.17;99.14;94747.91;5126533;27;20261;-73
2023/06/29 03:35:32;;;;;;;8.98;6.28;;;;;;;14.74;96.41;94746.72;5105592;27;20233;-74
2023/06/29 03:37:59;;;;;;;8.90;5.90;;;;;;;15.58;91.94;94741.72;5118944;27;20264;-73
2023/06/29 03:40:25;;;;;;;7.22;4.90;;;;;;;16.32;87.32;94741.72;5125568;27;20209;-73
2023/06/29 03:42:54;;;;;;;7.57;5.53;;;;;;;17.24;83.47;94737.13;5110440;28;20724;-73
2023/06/29 03:45:20;;;;;;;8.40;5.38;;;;;;;17.20;83.04;94739.03;5111225;28;20288;-74
2023/06/29 03:47:47;;;;;;;6.57;4.93;;;;;;;17.39;79.50;94736.19;5111314;28;20209;-73
2023/06/29 03:50:14;;;;;;;10.98;5.35;;;;;;;17.63;79.90;94738.53;5112013;28;20228;-74
2023/06/29 03:52:40;;;;;;;7.47;5.38;;;;;;;18.02;78.32;94743.78;5111424;28;20209;-73
2023/06/29 03:55:08;;;;;;;7.28;4.95;;;;;;;18.25;75.63;94738.97;5109332;28;20286;-74
2023/06/29 03:57:35;;;;;;;7.53;5.20;;;;;;;18.46;77.41;94741.94;5094214;28;20207;-74
2023/06/29 04:00:05;;;;;;;6.57;4.97;;;;;;;19.22;74.31;94743.53;5103083;28;20198;-74
2023/06/29 04:02:32;;;;;;;7.25;5.10;;;;;;;19.06;72.87;94752.81;5110834;28;20225;-74
2023/06/29 04:04:59;;;;;;;5.90;4.47;;;;;;;18.95;72.94;94746.44;5111169;28;20205;-75
2023/06/29 04:07:25;;;;;;;5.15;4.55;;;;;;;19.39;71.43;94742.88;5110597;28;20798;-74
2023/06/29 04:09:52;;;;;;;7.43;6.35;;;;;;;19.84;70.03;94744.38;5101756;28;20559;-74
2023/06/29 04:12:19;;;;;;;7.28;6.53;;;;;;;18.98;71.71;94748.44;5110553;28;20668;-74
2023/06/29 04:14:46;;;;;;;7.30;6.20;;;;;;;19.28;70.88;94750.22;5108884;28;20212;-74
2023/06/29 04:17:14;;;;;;;6.57;5.88;;;;;;;19.68;69.42;94739.19;5097499;28;20354;-74
2023/06/29 04:19:41;;;;;;;7.50;6.60;;;;;;;20.34;67.37;94741.91;5103570;28;20251;-74
2023/06/29 04:22:08;;;;;;;8.52;6.05;;;;;;;19.96;67.09;94754.28;5108192;28;20205;-73
2023/06/29 04:24:34;;;;;;;6.97;5.10;;;;;;;19.42;69.66;94753.09;5109981;28;20210;-74
2023/06/29 04:27:01;;;;;;;6.28;5.47;;;;;;;19.45;69.31;94755.09;5109036;28;20202;-74
2023/06/29 04:29:28;;;;;;;8.95;6.85;;;;;;;19.60;67.94;94748.56;5109071;28;20209;-74
2023/06/29 04:31:55;;;;;;;6.97;5.53;;;;;;;19.68;66.95;94744.69;5109377;28;20202;-74
2023/06/29 04:34:23;;;;;;;10.00;6.80;;;;;;;20.63;65.44;94737.34;5110552;28;20205;-74
2023/06/29 04:36:50;;;;;;;9.35;7.38;;;;;;;19.86;66.18;94740.09;5110245;28;20241;-73
2023/06/29 04:39:17;;;;;;;9.32;7.20;;;;;;;20.28;66.45;94744.22;5111123;28;20250;-75
2023/06/29 04:41:46;;;;;;;8.20;6.82;;;;;;;20.23;66.13;94747.34;5110352;28;20615;-74
2023/06/29 04:44:13;;;;;;;8.52;7.22;;;;;;;20.35;64.99;94744.28;5109851;28;20237;-74
2023/06/29 04:46:40;;;;;;;7.93;6.40;;;;;;;20.36;64.57;94753.34;5109660;28;20315;-73
2023/06/29 04:49:09;;;;;;;7.22;6.03;;;;;;;20.60;65.68;94746.34;5122263;27;20212;-75
2023/06/29 04:51:38;;;;;;;6.93;6.18;;;;;;;22.96;59.28;94736.22;5092324;27;20713;-75
2023/06/29 04:54:05;;;;;;;11.18;5.50;;;;;;;23.12;57.50;94749.56;5090110;28;20613;-75
2023/06/29 04:56:32;;;;;;;5.85;4.10;;;;;;;20.82;62.47;94750.75;5089776;28;20317;-75
2023/06/29 04:58:59;;;;;;;8.85;5.80;;;;;;;21.23;62.89;94754.78;5093014;28;20193;-74
2023/06/29 05:01:26;;;;;;;7.70;6.15;;;;;;;21.34;61.29;94742.97;5110083;28;20210;-74
2023/06/29 05:03:52;;;;;;;6.35;4.85;;;;;;;20.20;64.66;94753.66;5123075;27;20200;-72
2023/06/29 05:06:20;;;;;;;8.18;7.38;;;;;;;22.23;60.50;94754.72;5090099;28;20202;-74
2023/06/29 05:08:48;;;;;;;10.95;7.25;;;;;;;20.85;62.46;94755.47;5089782;28;20218;-72
2023/06/29 05:11:14;;;;;;;8.48;7.60;;;;;;;20.85;60.99;94758.22;5089310;28;20247;-75
2023/06/29 05:13:41;;;;;;;13.68;10.52;;;;;;;21.91;59.81;94755.53;5089989;28;20267;-75
2023/06/29 05:16:08;;;;;;;9.60;7.25;;;;;;;22.06;58.84;94758.28;5089509;28;20234;-75
2023/06/29 05:18:36;;;;;;;9.57;7.68;;;;;;;21.15;62.00;94764.19;5090030;28;20285;-75
2023/06/29 05:21:03;;;;;;;8.48;7.13;;;;;;;20.45;63.54;94771.06;5109389;28;20247;-75
2023/06/29 05:23:30;;;;;;;10.57;7.40;;;;;;;21.21;61.17;94759.88;5109698;28;20251;-75
2023/06/29 05:25:58;;;;;;;7.82;6.68;;;;;;;21.03;61.64;94767.31;5113240;27;20193;-74
2023/06/29 05:28:25;;;;;;;8.23;7.45;;;;;;;22.49;57.47;94762.50;5111937;27;20657;-75
2023/06/29 05:30:52;;;;;;;8.68;7.18;;;;;;;22.43;57.15;94766.84;5115675;27;20279;-75
2023/06/29 05:33:19;;;;;;;7.32;5.78;;;;;;;21.82;59.91;94770.91;5090229;28;20224;-75
2023/06/29 05:35:45;;;;;;;8.48;7.22;;;;;;;22.70;56.35;94767.91;5111876;27;20626;-75
2023/06/29 05:38:12;;;;;;;9.95;7.35;;;;;;;23.52;55.79;94766.69;5109508;28;20283;-74
2023/06/29 05:40:39;;;;;;;8.20;7.40;;;;;;;24.30;53.82;94768.78;5111242;27;20202;-75
2023/06/29 05:43:07;;;;;;;7.63;6.82;;;;;;;24.14;51.18;94772.06;5108734;28;20278;-76
2023/06/29 05:45:34;;;;;;;8.40;6.90;;;;;;;22.71;56.26;94763.19;5106761;28;20552;-75
2023/06/29 05:48:00;;;;;;;9.15;7.35;;;;;;;22.32;56.46;94768.84;5103779;28;20246;-76
2023/06/29 05:50:27;;;;;;;7.90;6.85;;;;;;;21.89;56.94;94774.44;5107315;28;20206;-72
2023/06/29 05:52:54;;;;;;;9.73;7.15;;;;;;;21.76;57.71;94772.50;5094757;28;20626;-73
2023/06/29 05:55:21;;;;;;;7.40;6.32;;;;;;;22.01;56.62;94776.03;5108224;28;20201;-71
2023/06/29 05:57:48;;;;;;;10.38;6.38;;;;;;;23.66;53.48;94766.56;5107572;28;20204;-73
2023/06/29 06:00:18;;;;;;;7.85;7.05;;;;;;;24.65;49.92;94765.56;5109400;28;20201;-74
2023/06/29 06:02:45;;;;;;;8.02;7.10;;;;;;;22.54;55.97;94773.13;5116058;28;20205;-74
2023/06/29 06:05:12;;;;;;;9.40;6.60;;;;;;;21.48;57.49;94782.34;5109665;28;20209;-73
2023/06/29 06:07:39;;;;;;;9.05;6.88;;;;;;;21.18;60.41;94785.44;5109328;28;20210;-74
2023/06/29 06:10:07;;;;;;;9.05;7.00;;;;;;;21.70;58.49;94785.13;5120252;28;20197;-74
2023/06/29 06:12:34;;;;;;;9.00;6.53;;;;;;;23.14;55.35;94769.28;5116747;28;20201;-74
2023/06/29 06:15:00;;;;;;;9.38;6.78;;;;;;;24.16;52.67;94769.69;5107883;28;20255;-74
2023/06/29 06:17:29;;;;;;;8.85;6.85;;;;;;;23.92;51.45;94757.63;5106414;28;20275;-71
2023/06/29 06:19:55;;;;;;;8.65;6.45;;;;;;;23.13;55.41;94776.00;5109430;28;20205;-72
2023/06/29 06:22:22;;;;;;;10.50;7.07;;;;;;;23.24;54.69;94785.00;5119553;28;20213;-73
2023/06/29 06:24:49;;;;;;;8.63;7.45;;;;;;;24.26;51.66;94779.09;5092904;28;20217;-73
2023/06/29 06:27:16;;;;;;;8.15;6.43;;;;;;;25.32;51.33;94758.34;5092866;28;20206;-76
2023/06/29 06:29:43;;;;;;;8.52;7.28;;;;;;;24.10;51.64;94769.31;5092916;28;20213;-78
2023/06/29 06:32:10;;;;;;;6.32;5.68;;;;;;;25.63;47.99;94759.09;5097609;28;20664;-74
2023/06/29 06:34:38;;;;;;;8.45;5.82;;;;;;;26.31;47.09;94760.72;5113210;28;20539;-77
2023/06/29 06:37:06;;;;;;;8.75;6.13;;;;;;;25.60;47.59;94767.44;5099525;28;20225;-76
2023/06/29 06:39:33;;;;;;;8.13;6.50;;;;;;;26.59;46.43;94760.16;5110316;28;20660;-76
2023/06/29 06:42:00;;;;;;;7.00;6.07;;;;;;;26.54;45.89;94763.44;5112417;28;20214;-77
2023/06/29 06:44:27;;;;;;;8.45;6.10;;;;;;;25.78;48.35;94773.53;5112533;28;20723;-77
2023/06/29 06:46:54;;;;;;;6.68;5.93;;;;;;;24.89;49.67;94771.22;5112432;28;20680;-80
2023/06/29 06:49:21;;;;;;;8.45;6.45;;;;;;;24.14;50.38;94774.06;5112864;28;20263;-74
2023/06/29 06:51:49;;;;;;;6.15;5.43;;;;;;;25.53;49.19;94767.56;5112284;28;20612;-75
2023/06/29 06:54:16;;;;;;;6.93;6.22;;;;;;;24.65;48.26;94773.88;5112504;28;20280;-77
2023/06/29 06:56:43;;;;;;;8.65;5.53;;;;;;;23.80;51.60;94780.28;5112396;28;20244;-77
2023/06/29 06:59:10;;;;;;;10.35;5.82;;;;;;;24.32;50.30;94780.22;5111987;28;20412;-77
2023/06/29 07:01:41;;;;;;;6.00;5.40;;;;;;;22.98;52.86;94778.06;5100037;28;20663;-75
2023/06/29 07:04:08;;;;;;;6.45;5.60;;;;;;;24.47;50.80;94772.50;5112027;28;20213;-80
2023/06/29 07:06:35;;;;;;;8.32;6.53;;;;;;;23.95;51.60;94762.34;5112428;28;20660;-78
2023/06/29 07:09:04;;;;;;;9.85;7.25;;;;;;;24.20;50.85;94772.38;5113675;27;20254;-80
2023/06/29 07:11:31;;;;;;;7.43;6.32;;;;;;;24.39;50.31;94769.06;5114176;27;20198;-77
2023/06/29 07:13:58;;;;;;;7.63;5.88;;;;;;;23.39;50.45;94769.13;5091298;28;20606;-80
2023/06/29 07:16:25;;;;;;;6.18;5.22;;;;;;;25.76;48.56;94762.84;5091217;28;20221;-80
2023/06/29 07:19:04;;;;;;;7.20;5.32;;;;;;;26.30;45.79;94753.59;5118791;27;20210;-81
2023/06/29 07:21:31;;;;;;;7.70;5.28;;;;;;;26.12;46.93;94765.78;5091510;28;20232;-77
2023/06/29 07:23:58;;;;;;;6.95;5.28;;;;;;;26.92;46.18;94756.28;5091411;28;20206;-76
2023/06/29 07:26:27;;;;;;;5.38;4.88;;;;;;;28.09;42.32;94758.38;5091516;28;20236;-75
2023/06/29 07:28:54;;;;;;;5.53;4.65;;;;;;;27.41;43.39;94764.78;5115776;27;20197;-76
2023/06/29 07:31:24;;;;;;;5.20;4.75;;;;;;;27.57;43.04;94755.72;5115258;27;20266;-75
2023/06/29 07:33:52;;;;;;;5.80;4.82;;;;;;;24.84;46.94;94771.69;5111053;27;20186;-73
2023/06/29 07:36:19;;;;;;;7.13;5.20;;;;;;;22.68;53.04;94778.59;5099538;28;20276;-74
2023/06/29 07:38:46;;;;;;;5.57;5.03;;;;;;;22.18;53.82;94774.41;5110440;28;20296;-74
2023/06/29 07:41:13;;;;;;;8.93;5.22;;;;;;;23.11;53.51;94764.56;5125270;27;20269;-75
2023/06/29 07:43:42;;;;;;;6.32;4.75;;;;;;;25.42;50.33;94751.84;5112592;27;20232;-75
2023/06/29 07:46:09;;;;;;;7.95;4.88;;;;;;;24.35;50.23;94762.75;5110055;28;20863;-75
2023/06/29 07:48:36;;;;;;;6.65;4.93;;;;;;;24.99;48.46;94753.72;5090938;28;20627;-75
2023/06/29 07:51:04;;;;;;;5.50;4.90;;;;;;;24.32;51.12;94769.16;5091000;28;20210;-75
2023/06/29 07:53:31;;;;;;;7.28;5.10;;;;;;;24.94;49.83;94759.69;5099694;28;20240;-75
2023/06/29 07:55:59;;;;;;;5.90;4.43;;;;;;;25.15;48.53;94762.16;5124676;27;20204;-76
2023/06/29 07:58:25;;;;;;;4.57;4.18;;;;;;;25.99;47.73;94753.72;5110849;28;20268;-75
2023/06/29 08:00:54;;;;;;;4.72;3.78;;;;;;;25.91;45.10;94760.63;5095612;28;20693;-76
2023/06/29 08:03:21;;;;;;;5.40;3.90;;;;;;;26.04;45.97;94756.03;5091223;28;20264;-75
2023/06/29 08:05:48;;;;;;;4.38;3.97;;;;;;;25.01;47.77;94754.06;5091177;28;20199;-76
2023/06/29 08:08:15;;;;;;;5.47;4.05;;;;;;;25.36;46.87;94750.00;5091125;28;20210;-75
2023/06/29 08:10:42;;;;;;;6.15;3.70;;;;;;;24.98;47.46;94752.91;5091351;28;20214;-76
2023/06/29 08:13:09;;;;;;;5.07;3.65;;;;;;;25.27;45.99;94738.66;5100060;28;20254;-75
2023/06/29 08:15:36;;;;;;;4.50;3.55;;;;;;;24.89;47.16;94751.81;5111332;28;20209;-74
2023/06/29 08:18:04;;;;;;;4.00;3.15;;;;;;;23.45;49.55;94758.41;5110536;28;20241;-74
2023/06/29 08:20:31;;;;;;;3.20;2.80;;;;;;;23.25;51.06;94761.72;5114303;27;20217;-75
2023/06/29 08:22:58;;;;;;;4.45;3.13;;;;;;;22.32;51.20;94758.59;5111758;27;20206;-75
2023/06/29 08:25:24;;;;;;;4.05;3.65;;;;;;;22.94;51.87;94754.44;5089825;28;20963;-75
2023/06/29 08:27:51;;;;;;;6.40;3.40;;;;;;;23.38;50.33;94751.75;5090066;28;20202;-75
2023/06/29 08:30:18;;;;;;;4.85;2.95;;;;;;;23.37;51.91;94758.47;5090865;28;20210;-75
2023/06/29 08:32:48;;;;;;;5.28;3.67;;;;;;;22.64;53.84;94757.69;5090413;28;20206;-76
2023/06/29 08:35:16;;;;;;;6.85;3.72;;;;;;;21.49;57.21;94766.59;5090046;28;20226;-75
2023/06/29 08:37:43;;;;;;;4.70;3.60;;;;;;;22.34;54.87;94760.97;5100717;28;20229;-74
2023/06/29 08:40:12;;;;;;;4.82;3.20;;;;;;;23.20;51.43;94756.63;5109765;28;20247;-74
2023/06/29 08:42:40;;;;;;;5.80;3.60;;;;;;;22.77;52.42;94763.59;5109669;28;20332;-74
2023/06/29 08:45:08;;;;;;;6.22;3.88;;;;;;;22.50;54.03;94746.72;5110484;28;20198;-74
2023/06/29 08:47:38;;;;;;;4.15;3.67;;;;;;;22.76;53.54;94749.00;5122060;27;20618;-73
2023/06/29 08:50:06;;;;;;;4.35;3.45;;;;;;;24.22;50.89;94737.56;5090339;28;20216;-75
2023/06/29 08:52:35;;;;;;;5.35;3.85;;;;;;;24.46;50.24;94744.06;5104119;28;20205;-75
2023/06/29 08:55:03;;;;;;;5.53;4.13;;;;;;;24.54;50.58;94737.22;5097617;28;20210;-75
2023/06/29 08:57:32;;;;;;;7.53;3.88;;;;;;;24.58;49.26;94737.97;5109868;28;20718;-75
2023/06/29 08:59:59;;;;;;;4.50;3.33;;;;;;;24.38;51.10;94742.56;5102537;28;20704;-74
2023/06/29 09:02:28;;;;;;;4.07;3.20;;;;;;;22.76;52.72;94737.13;5089667;28;20234;-75
2023/06/29 09:04:56;;;;;;;3.70;3.15;;;;;;;21.94;55.46;94749.22;5089558;28;20206;-73
2023/06/29 09:07:23;;;;;;;3.97;3.20;;;;;;;21.85;55.13;94746.09;5104871;28;20202;-75
2023/06/29 09:09:51;;;;;;;4.53;2.78;;;;;;;22.66;51.53;94738.75;5118592;27;20197;-74
2023/06/29 09:12:18;;;;;;;4.55;2.90;;;;;;;22.97;50.69;94737.81;5098858;27;20206;-74
2023/06/29 09:14:47;;;;;;;4.07;2.70;;;;;;;22.87;50.41;94733.13;5089609;28;20210;-75
2023/06/29 09:17:15;;;;;;;2.63;2.42;;;;;;;23.35;49.04;94724.94;5105578;28;20727;-75
2023/06/29 09:19:50;;;;;;;5.45;2.47;;;;;;;22.47;52.40;94726.22;5110422;28;20216;-71
2023/06/29 09:22:18;;;;;;;3.47;2.50;;;;;;;22.63;52.27;94723.78;5119571;27;20206;-75
2023/06/29 09:24:45;;;;;;;3.55;3.22;;;;;;;22.56;53.78;94728.53;5089207;28;20206;-75
2023/06/29 09:27:13;;;;;;;3.60;3.10;;;;;;;22.89;54.01;94732.75;5088312;28;20207;-75
2023/06/29 09:29:40;;;;;;;3.25;2.88;;;;;;;23.10;53.94;94718.78;5089682;28;20214;-75
2023/06/29 09:32:14;;;;;;;3.30;2.80;;;;;;;23.19;53.05;94721.88;5089360;28;20237;-73
2023/06/29 09:34:45;;;;;;;6.05;2.72;;;;;;;23.01;53.10;94721.22;5102014;28;20225;-71
2023/06/29 09:37:13;;;;;;;9.35;2.90;;;;;;;22.26;54.97;94716.06;5109569;28;20218;-75
2023/06/29 09:39:50;;;;;;;5.63;2.97;;;;;;;22.36;52.65;94714.44;5109801;28;20206;-75
2023/06/29 09:42:19;;;;;;;3.28;2.42;;;;;;;23.22;53.35;94712.78;5109560;28;20703;-76
2023/06/29 09:44:46;;;;;;;3.58;2.60;;;;;;;23.28;49.98;94711.16;5109019;28;20536;-75
2023/06/29 09:47:13;;;;;;;3.00;2.40;;;;;;;23.25;49.75;94709.19;5108320;28;20251;-72
2023/06/29 09:49:47;;;;;;;3.58;2.65;;;;;;;23.55;50.89;94716.88;5108752;28;20258;-75
2023/06/29 09:52:15;;;;;;;3.17;2.22;;;;;;;23.01;49.72;94710.16;5109666;28;20224;-75
2023/06/29 09:54:43;;;;;;;2.85;2.30;;;;;;;23.58;48.02;94716.06;5114348;28;20211;-75
2023/06/29 09:57:11;;;;;;;2.95;2.30;;;;;;;23.09;47.91;94717.22;5119417;28;20775;-74
2023/06/29 09:59:40;;;;;;;4.03;2.30;;;;;;;22.56;51.48;94712.75;5111448;28;20198;-74
2023/06/29 10:02:08;;;;;;;2.88;2.25;;;;;;;22.63;50.61;94718.25;5095518;28;20577;-75
2023/06/29 10:04:35;;;;;;;2.38;2.17;;;;;;;23.17;50.56;94713.22;5095583;28;20247;-75
2023/06/29 10:07:07;;;;;;;4.55;2.40;;;;;;;23.44;51.73;94709.84;5095724;28;20259;-75
2023/06/29 10:09:37;;;;;;;4.38;3.03;;;;;;;22.31;53.02;94712.06;5122460;27;20200;-73
2023/06/29 10:12:06;;;;;;;3.00;2.70;;;;;;;22.39;50.80;94708.13;5109193;27;20213;-73
2023/06/29 10:14:34;;;;;;;3.53;2.40;;;;;;;22.78;52.72;94698.88;5095998;28;20213;-74
2023/06/29 10:17:05;;;;;;;6.03;1.90;;;;;;;22.93;48.19;94708.66;5095212;28;20198;-74
2023/06/29 10:19:34;;;;;;;2.30;1.92;;;;;;;22.57;48.29;94703.28;5103500;28;20613;-73
2023/06/29 10:22:04;;;;;;;4.28;2.15;;;;;;;23.17;47.95;94691.09;5115963;28;20201;-75
2023/06/29 10:24:34;;;;;;;3.17;2.30;;;;;;;22.83;49.80;94698.44;5116202;27;20202;-74
2023/06/29 10:27:02;;;;;;;2.50;2.00;;;;;;;22.68;49.66;94692.19;5115741;28;20212;-73
2023/06/29 10:29:31;;;;;;;4.28;2.25;;;;;;;23.26;51.07;94688.66;5116269;28;20205;-75
2023/06/29 10:32:00;;;;;;;4.03;2.10;;;;;;;23.80;49.83;94672.38;5115922;28;20202;-75
2023/06/29 10:34:28;;;;;;;3.30;2.30;;;;;;;22.84;50.32;94686.19;5115684;27;20224;-74
2023/06/29 10:36:59;;;;;;;2.67;2.30;;;;;;;22.47;52.38;94679.28;5115539;27;20673;-74
2023/06/29 10:39:44;;;;;;;3.65;2.08;;;;;;;22.18;52.29;94678.63;5115907;28;20201;-74
2023/06/29 10:42:13;;;;;;;2.05;1.73;;;;;;;22.02;50.81;94683.78;5123083;27;20200;-74
2023/06/29 10:44:40;;;;;;;4.70;2.00;;;;;;;22.73;48.09;94677.16;5120716;27;20297;-75
2023/06/29 10:47:07;;;;;;;2.55;2.20;;;;;;;22.37;51.39;94677.38;5104167;28;20197;-75
2023/06/29 10:49:35;;;;;;;3.10;1.90;;;;;;;22.69;52.58;94683.47;5117437;27;20319;-75
2023/06/29 10:52:03;;;;;;;3.17;2.17;;;;;;;22.89;52.84;94680.25;5118597;27;20582;-76
2023/06/29 10:54:30;;;;;;;2.50;1.92;;;;;;;23.54;50.79;94681.31;5095838;28;20692;-75
2023/06/29 10:56:58;;;;;;;2.80;2.20;;;;;;;23.72;48.23;94666.13;5095459;28;20220;-75
2023/06/29 10:59:26;;;;;;;5.10;1.80;;;;;;;21.92;50.35;94674.34;5101973;27;20216;-75
2023/06/29 11:01:54;;;;;;;2.78;2.20;;;;;;;21.19;50.00;94684.31;5115748;28;20201;-73
2023/06/29 11:04:22;;;;;;;1.80;1.60;;;;;;;21.13;50.09;94683.91;5115556;28;20210;-74
2023/06/29 11:06:50;;;;;;;2.58;1.63;;;;;;;21.67;50.45;94681.13;5115241;27;20205;-71
2023/06/29 11:09:19;;;;;;;2.42;2.10;;;;;;;21.83;49.32;94675.97;5115873;27;20583;-72
2023/06/29 11:11:47;;;;;;;3.15;2.38;;;;;;;22.22;50.55;94664.81;5110530;27;20202;-74
2023/06/29 11:14:14;;;;;;;2.92;2.30;;;;;;;22.05;48.75;94671.19;5091834;28;20255;-75
2023/06/29 11:16:41;;;;;;;4.07;1.98;;;;;;;22.35;48.87;94668.69;5092559;28;20644;-76
2023/06/29 11:19:08;;;;;;;2.63;1.92;;;;;;;22.64;48.67;94664.59;5091808;28;20233;-75
2023/06/29 11:21:34;;;;;;;4.15;2.47;;;;;;;22.43;49.21;94661.94;5091860;28;20263;-75
2023/06/29 11:24:02;;;;;;;4.35;2.35;;;;;;;22.82;49.62;94652.69;5091874;28;20274;-75
2023/06/29 11:26:29;;;;;;;1.73;1.00;;;;;;;21.96;48.52;94664.09;5103611;28;20210;-74
2023/06/29 11:28:56;;;;;;;2.42;1.95;;;;;;;22.00;50.14;94657.81;5111954;28;20216;-76
2023/06/29 11:31:23;;;;;;;1.85;1.65;;;;;;;22.18;49.60;94658.50;5112281;28;20209;-73
2023/06/29 11:33:50;;;;;;;3.90;1.83;;;;;;;22.24;48.01;94654.16;5111853;28;20229;-75